Terminal Aerodrome Forecast
Issued by NWS

Home | Current Version | Previous Version | Text Only | Print | Product List | Glossary Off
Versions: 1 2 3 4 5 6 7 8 9 10 11 12 13 14 15 16 17 18

000
FTUS43 KBIS 192009 AAB
TAFMOT
TAF AMD
KMOT 192009Z 1920/2018 19012G18KT P6SM -SHRA SCT035 BKN100
     FM192200 21011KT P6SM VCSH OVC050
     FM200000 25011KT P6SM BKN070
     FM200600 25010KT P6SM BKN070
     FM201600 22012KT P6SM SCT250=

USA.gov is the U.S. government's official web portal to all federal, state and local government web resources and services.